createdAt,value
2018-04-23T00:00:26.202Z,14.40
2018-04-23T00:02:53.714Z,14.40
2018-04-23T00:05:21.221Z,14.30
2018-04-23T00:07:49.486Z,14.20
2018-04-23T00:10:16.976Z,14.20
2018-04-23T00:12:45.231Z,14.10
2018-04-23T00:15:13.507Z,14.00
2018-04-23T00:17:41.086Z,14.00
2018-04-23T00:20:08.581Z,13.90
2018-04-23T00:22:36.080Z,13.90
2018-04-23T00:25:04.331Z,13.90
2018-04-23T00:27:31.831Z,13.90
2018-04-23T00:29:59.596Z,13.80
2018-04-23T00:32:27.091Z,13.80
2018-04-23T00:34:54.570Z,13.70
2018-04-23T00:37:22.110Z,13.70
2018-04-23T00:39:49.586Z,13.70
2018-04-23T00:42:17.877Z,13.70
2018-04-23T00:44:46.612Z,13.60
2018-04-23T00:47:14.090Z,13.60
2018-04-23T00:49:41.598Z,13.70
2018-04-23T00:52:09.446Z,13.60
2018-04-23T00:54:37.718Z,13.50
2018-04-23T00:57:05.991Z,13.40
2018-04-23T00:59:33.868Z,13.40
2018-04-23T01:02:01.378Z,13.30
2018-04-23T01:04:28.850Z,13.30
2018-04-23T01:06:56.609Z,13.30
2018-04-23T01:09:24.091Z,13.30
2018-04-23T01:11:51.612Z,13.20
2018-04-23T01:14:19.382Z,13.10
2018-04-23T01:16:46.878Z,13.10
2018-04-23T01:19:15.133Z,13.00
2018-04-23T01:21:42.674Z,13.00
2018-04-23T01:24:10.145Z,13.00
2018-04-23T01:26:37.656Z,13.00
2018-04-23T01:29:05.400Z,12.90
2018-04-23T01:31:33.691Z,12.70
2018-04-23T01:34:01.186Z,12.70
2018-04-23T01:36:28.994Z,12.70
2018-04-23T01:38:57.244Z,12.80
2018-04-23T01:41:24.705Z,12.80
2018-04-23T01:43:52.486Z,12.80
2018-04-23T01:46:19.971Z,12.70
2018-04-23T01:48:47.518Z,12.70
2018-04-23T01:51:15.114Z,12.70
2018-04-23T01:53:42.772Z,12.80
2018-04-23T01:56:10.242Z,12.80
2018-04-23T01:58:37.734Z,12.70
2018-04-23T02:01:05.253Z,12.70
2018-04-23T02:03:32.748Z,12.80
2018-04-23T02:06:00.278Z,12.80
2018-04-23T02:08:27.762Z,12.90
2018-04-23T02:10:55.229Z,12.90
2018-04-23T02:13:23.809Z,12.90
2018-04-23T02:15:52.057Z,13.00
2018-04-23T02:18:19.551Z,13.00
2018-04-23T02:20:48.081Z,13.10
2018-04-23T02:23:15.583Z,13.10
2018-04-23T02:25:43.826Z,13.30
2018-04-23T02:28:11.790Z,13.30
2018-04-23T02:30:39.257Z,13.30
2018-04-23T02:33:06.733Z,13.30
2018-04-23T02:35:34.986Z,13.20
2018-04-23T02:38:03.233Z,13.20
2018-04-23T02:40:30.718Z,13.20
2018-04-23T02:42:58.609Z,13.20
2018-04-23T02:45:26.868Z,13.30
2018-04-23T02:47:54.346Z,13.30
2018-04-23T02:50:22.646Z,13.20
2018-04-23T02:52:50.128Z,13.20
2018-04-23T02:55:17.598Z,13.10
2018-04-23T02:57:45.601Z,13.20
2018-04-23T03:00:13.878Z,13.10
2018-04-23T03:02:42.225Z,13.00
2018-04-23T03:05:10.025Z,13.00
2018-04-23T03:07:38.290Z,13.00
2018-04-23T03:10:05.765Z,12.90
2018-04-23T03:12:33.275Z,12.80
2018-04-23T03:15:00.745Z,12.80
2018-04-23T03:17:28.222Z,12.80
2018-04-23T03:19:56.811Z,12.80
2018-04-23T03:22:25.520Z,12.80
2018-04-23T03:24:53.010Z,12.80
2018-04-23T03:27:20.818Z,12.70
2018-04-23T03:29:49.070Z,12.40
2018-04-23T03:32:16.581Z,12.40
2018-04-23T03:34:44.090Z,12.50
2018-04-23T03:37:11.619Z,12.60
2018-04-23T03:39:39.169Z,12.50
2018-04-23T03:42:06.986Z,12.40
2018-04-23T03:44:35.229Z,12.50
2018-04-23T03:47:02.702Z,12.40
2018-04-23T03:49:30.514Z,12.40
2018-04-23T03:51:58.006Z,12.40
2018-04-23T03:54:25.475Z,12.20
2018-04-23T03:56:53.267Z,12.20
2018-04-23T03:59:21.506Z,12.10
2018-04-23T04:01:48.970Z,12.10
2018-04-23T04:04:16.767Z,12.10
2018-04-23T04:06:45.005Z,11.90
2018-04-23T04:09:13.238Z,12.00
2018-04-23T04:11:40.749Z,12.00
2018-04-23T04:14:20.119Z,12.00
2018-04-23T04:16:55.402Z,11.80
2018-04-23T04:19:22.877Z,11.80
2018-04-23T04:21:50.363Z,11.70
2018-04-23T04:24:18.965Z,11.70
2018-04-23T04:26:46.436Z,11.70
2018-04-23T04:29:13.918Z,11.80
2018-04-23T04:31:41.723Z,11.80
2018-04-23T04:34:10.106Z,11.80
2018-04-23T04:36:38.341Z,11.70
2018-04-23T04:39:06.097Z,11.70
2018-04-23T04:41:33.613Z,11.90
2018-04-23T04:44:01.160Z,11.70
2018-04-23T04:46:28.951Z,11.90
2018-04-23T04:48:56.420Z,11.90
2018-04-23T04:51:23.955Z,11.80
2018-04-23T04:53:51.707Z,11.80
2018-04-23T04:56:19.933Z,11.90
2018-04-23T04:58:47.410Z,11.80
2018-04-23T05:01:14.930Z,11.90
2018-04-23T05:03:42.402Z,11.90
2018-04-23T05:06:09.874Z,11.90
2018-04-23T05:08:37.720Z,12.00
2018-04-23T05:11:05.198Z,12.00
2018-04-23T05:13:32.694Z,12.00
2018-04-23T05:16:00.474Z,12.10
2018-04-23T05:18:27.942Z,12.10
2018-04-23T05:20:55.422Z,12.10
2018-04-23T05:23:23.194Z,12.20
2018-04-23T05:25:50.678Z,12.40
2018-04-23T05:28:18.926Z,12.30
2018-04-23T05:30:46.415Z,12.20
2018-04-23T05:33:13.898Z,12.20
2018-04-23T05:35:41.378Z,12.30
2018-04-23T05:38:08.858Z,12.40
2018-04-23T05:40:36.344Z,12.60
2018-04-23T05:43:03.826Z,12.70
2018-04-23T05:45:31.661Z,12.60
2018-04-23T05:47:59.891Z,12.80
2018-04-23T05:50:27.424Z,12.80
2018-04-23T05:52:55.253Z,12.90
2018-04-23T05:55:22.726Z,13.10
2018-04-23T05:57:50.980Z,13.40
2018-04-23T06:00:18.863Z,13.40
2018-04-23T06:02:47.092Z,13.60
2018-04-23T06:05:14.589Z,13.60
2018-04-23T06:07:43.122Z,13.50
2018-04-23T06:10:11.366Z,13.50
2018-04-23T06:12:38.850Z,13.50
2018-04-23T06:15:06.597Z,13.60
2018-04-23T06:17:34.074Z,13.60
2018-04-23T06:20:01.591Z,13.70
2018-04-23T06:22:30.165Z,14.00
2018-04-23T06:24:57.622Z,14.00
2018-04-23T06:27:25.870Z,14.60
2018-04-23T06:29:53.818Z,14.60
2018-04-23T06:32:21.324Z,14.80
2018-04-23T06:34:49.587Z,15.00
2018-04-23T06:37:17.104Z,15.00
2018-04-23T06:39:44.586Z,15.30
2018-04-23T06:42:12.090Z,15.50
2018-04-23T06:44:39.876Z,15.60
2018-04-23T06:47:07.399Z,16.00
2018-04-23T06:49:35.688Z,15.80
2018-04-23T06:52:03.532Z,15.70
2018-04-23T06:54:30.990Z,16.00
2018-04-23T06:56:59.225Z,16.60
2018-04-23T06:59:27.027Z,16.60
2018-04-23T07:01:54.486Z,16.60
2018-04-23T07:04:22.733Z,16.70
2018-04-23T07:06:50.458Z,16.70
2018-04-23T07:09:17.942Z,16.80
2018-04-23T07:11:45.406Z,17.10
2018-04-23T07:14:13.208Z,17.10
2018-04-23T07:16:41.507Z,17.10
2018-04-23T07:19:08.974Z,17.10
2018-04-23T07:21:36.450Z,17.40
2018-04-23T07:24:03.934Z,16.80
2018-04-23T07:26:31.430Z,16.70
2018-04-23T07:28:59.191Z,16.20
2018-04-23T07:31:26.673Z,15.80
2018-04-23T07:33:54.163Z,15.70
2018-04-23T07:36:21.998Z,15.60
2018-04-23T07:38:49.474Z,15.70
2018-04-23T07:41:16.969Z,16.20
2018-04-23T07:43:44.587Z,16.40
2018-04-23T07:46:12.055Z,16.90
2018-04-23T07:48:39.546Z,17.00
2018-04-23T07:51:08.100Z,16.90
2018-04-23T07:53:35.731Z,16.90
2018-04-23T07:56:03.239Z,16.80
2018-04-23T07:58:31.841Z,16.90
2018-04-23T08:00:59.322Z,16.90
2018-04-23T08:03:26.948Z,16.70
2018-04-23T08:05:54.845Z,17.00
2018-04-23T08:08:22.411Z,17.40
2018-04-23T08:10:49.953Z,17.40
2018-04-23T08:13:18.604Z,16.90
2018-04-23T08:15:46.086Z,16.90
2018-04-23T08:18:13.568Z,16.90
2018-04-23T08:20:41.399Z,17.10
2018-04-23T08:23:09.635Z,16.60
2018-04-23T08:25:37.130Z,16.60
2018-04-23T08:28:05.698Z,16.10
2018-04-23T08:30:33.204Z,16.10
2018-04-23T08:33:00.698Z,16.20
2018-04-23T08:35:28.630Z,16.20
2018-04-23T08:37:56.122Z,16.70
2018-04-23T08:40:23.606Z,16.50
2018-04-23T08:42:52.137Z,17.20
2018-04-23T08:45:19.618Z,17.20
2018-04-23T08:47:47.113Z,17.20
2018-04-23T08:50:15.686Z,18.70
2018-04-23T08:52:43.937Z,18.40
2018-04-23T08:55:11.418Z,18.40
2018-04-23T08:57:40.003Z,17.90
2018-04-23T09:00:07.511Z,17.90
2018-04-23T09:02:35.019Z,18.10
2018-04-23T09:05:03.083Z,18.40
2018-04-23T09:07:38.147Z,19.20
2018-04-23T09:10:05.658Z,19.20
2018-04-23T09:12:33.134Z,19.30
2018-04-23T09:15:01.415Z,19.90
2018-04-23T09:17:29.660Z,19.80
2018-04-23T09:19:57.159Z,19.70
2018-04-23T09:22:25.412Z,20.00
2018-04-23T09:24:54.031Z,19.90
2018-04-23T09:27:21.526Z,19.90
2018-04-23T09:29:48.995Z,20.10
2018-04-23T09:32:16.518Z,19.80
2018-04-23T09:34:43.998Z,18.60
2018-04-23T09:37:11.466Z,19.60
2018-04-23T09:39:39.241Z,19.50
2018-04-23T09:42:06.714Z,19.40
2018-04-23T09:44:36.319Z,20.10
2018-04-23T09:47:04.787Z,20.40
2018-04-23T09:49:33.073Z,20.80
2018-04-23T09:52:01.314Z,21.20
2018-04-23T09:54:29.133Z,21.10
2018-04-23T09:56:56.592Z,21.50
2018-04-23T09:59:24.101Z,20.20
2018-04-23T10:01:51.895Z,19.70
2018-04-23T10:04:20.940Z,19.80
2018-04-23T10:06:48.429Z,19.80
2018-04-23T10:09:15.952Z,20.20
2018-04-23T10:11:43.424Z,19.40
2018-04-23T10:14:10.953Z,18.80
2018-04-23T10:16:38.703Z,18.20
2018-04-23T10:19:08.578Z,18.90
2018-04-23T10:21:36.051Z,19.40
2018-04-23T10:24:04.624Z,20.40
2018-04-23T10:26:32.106Z,20.40
2018-04-23T10:28:59.586Z,20.20
2018-04-23T10:31:27.409Z,20.50
2018-04-23T10:33:54.891Z,20.30
2018-04-23T10:36:22.367Z,18.90
2018-04-23T10:38:50.182Z,17.90
2018-04-23T10:41:19.161Z,18.00
2018-04-23T10:43:46.626Z,17.80
2018-04-23T10:46:14.143Z,17.80
2018-04-23T10:48:41.666Z,17.90
2018-04-23T10:51:09.182Z,17.60
2018-04-23T10:53:36.662Z,17.50
2018-04-23T10:56:04.134Z,17.50
2018-04-23T10:58:32.372Z,17.20
2018-04-23T11:01:00.277Z,17.40
2018-04-23T11:03:27.851Z,17.70
2018-04-23T11:05:55.402Z,17.70
2018-04-23T11:08:23.219Z,17.00
2018-04-23T11:10:50.698Z,17.00
2018-04-23T11:13:18.943Z,17.50
2018-04-23T11:15:46.571Z,17.50
2018-04-23T11:18:14.030Z,17.60
2018-04-23T11:20:41.518Z,17.90
2018-04-23T11:23:09.411Z,18.00
2018-04-23T11:25:36.891Z,17.90
2018-04-23T11:28:05.138Z,18.10
2018-04-23T11:30:33.014Z,18.10
2018-04-23T11:33:01.287Z,17.60
2018-04-23T11:35:28.753Z,17.60
2018-04-23T11:37:57.430Z,17.70
2018-04-23T11:40:24.989Z,17.70
2018-04-23T11:42:52.474Z,17.80
2018-04-23T11:45:20.316Z,17.80
2018-04-23T11:47:47.795Z,17.60
2018-04-23T11:50:15.323Z,18.30
2018-04-23T11:52:43.095Z,18.20
2018-04-23T11:55:11.350Z,18.20
2018-04-23T11:57:39.617Z,17.60
2018-04-23T12:00:07.107Z,17.60
2018-04-23T12:02:35.375Z,18.70
2018-04-23T12:05:03.912Z,18.50
2018-04-23T12:07:31.410Z,18.60
2018-04-23T12:09:58.889Z,18.20
2018-04-23T12:12:27.197Z,17.70
2018-04-23T12:14:54.674Z,17.70
2018-04-23T12:17:22.144Z,17.70
2018-04-23T12:19:49.926Z,17.30
2018-04-23T12:22:17.439Z,17.50
2018-04-23T12:24:44.914Z,17.20
2018-04-23T12:27:12.811Z,17.50
2018-04-23T12:29:40.312Z,17.40
2018-04-23T12:32:07.779Z,17.40
2018-04-23T12:34:35.590Z,17.30
2018-04-23T12:37:03.829Z,17.20
2018-04-23T12:39:31.343Z,17.20
2018-04-23T12:41:59.204Z,17.20
2018-04-23T12:44:26.687Z,17.00
2018-04-23T12:46:54.183Z,16.70
2018-04-23T12:49:21.951Z,16.70
2018-04-23T12:51:49.423Z,16.60
2018-04-23T12:54:17.860Z,16.90
2018-04-23T12:56:45.666Z,16.90
2018-04-23T12:59:13.581Z,17.00
2018-04-23T13:01:41.049Z,17.00
2018-04-23T13:04:08.538Z,16.90
2018-04-23T13:06:36.010Z,16.90
2018-04-23T13:09:04.275Z,17.00
2018-04-23T13:11:33.344Z,17.00
2018-04-23T13:14:01.618Z,16.70
2018-04-23T13:16:29.098Z,16.70
2018-04-23T13:18:56.870Z,16.90
2018-04-23T13:21:25.219Z,17.30
2018-04-23T13:23:52.750Z,17.30
2018-04-23T13:26:20.255Z,17.40
2018-04-23T13:28:47.875Z,16.90
2018-04-23T13:31:15.362Z,16.90
2018-04-23T13:33:43.148Z,16.80
2018-04-23T13:36:11.447Z,16.80
2018-04-23T13:38:39.098Z,16.70
2018-04-23T13:41:07.667Z,17.00
2018-04-23T13:43:42.543Z,17.00
2018-04-23T13:46:10.966Z,17.00
2018-04-23T13:48:38.473Z,17.00
2018-04-23T13:51:06.029Z,17.30
2018-04-23T13:53:33.530Z,17.20
2018-04-23T13:56:00.997Z,17.20
2018-04-23T13:58:28.918Z,17.50
2018-04-23T14:00:56.397Z,17.50
2018-04-23T14:03:23.856Z,17.50
2018-04-23T14:05:51.398Z,17.00
2018-04-23T14:08:19.203Z,17.30
2018-04-23T14:10:47.499Z,16.80
2018-04-23T14:13:14.986Z,16.80
2018-04-23T14:15:42.803Z,16.90
2018-04-23T14:18:10.313Z,16.80
2018-04-23T14:20:37.770Z,16.20
2018-04-23T14:23:05.267Z,16.20
2018-04-23T14:25:32.746Z,16.20
2018-04-23T14:28:00.987Z,16.70
2018-04-23T14:30:28.775Z,16.70
2018-04-23T14:32:57.003Z,16.80
2018-04-23T14:35:24.556Z,16.80
2018-04-23T14:37:52.381Z,16.30
2018-04-23T14:40:20.610Z,16.20
2018-04-23T14:42:48.111Z,16.20
2018-04-23T14:45:16.653Z,16.70
2018-04-23T14:47:45.010Z,16.70
2018-04-23T14:50:12.481Z,16.80
2018-04-23T14:52:40.318Z,16.50
2018-04-23T14:55:07.810Z,16.60
2018-04-23T14:57:35.300Z,16.80
2018-04-23T15:00:03.075Z,16.70
2018-04-23T15:02:31.306Z,16.40
2018-04-23T15:04:58.753Z,16.40
2018-04-23T15:07:26.242Z,16.20
2018-04-23T15:09:53.890Z,16.30
2018-04-23T15:12:21.635Z,16.10
2018-04-23T15:14:49.264Z,16.40
2018-04-23T15:17:17.006Z,16.50
2018-04-23T15:19:45.404Z,16.70
2018-04-23T15:22:13.379Z,16.70
2018-04-23T15:24:40.980Z,16.60
2018-04-23T15:27:08.598Z,16.50
2018-04-23T15:29:36.432Z,16.40
2018-04-23T15:32:04.667Z,15.90
2018-04-23T15:34:32.126Z,15.90
2018-04-23T15:37:00.019Z,15.90
2018-04-23T15:39:28.467Z,15.80
2018-04-23T15:41:55.942Z,15.90
2018-04-23T15:44:23.832Z,15.90
2018-04-23T15:46:51.339Z,16.30
2018-04-23T15:49:19.942Z,15.90
2018-04-23T15:51:47.744Z,16.10
2018-04-23T15:54:16.060Z,15.90
2018-04-23T15:56:43.518Z,16.00
2018-04-23T15:59:12.433Z,16.00
2018-04-23T16:01:39.902Z,15.90
2018-04-23T16:04:07.374Z,15.50
2018-04-23T16:06:35.916Z,15.60
2018-04-23T16:09:03.385Z,15.60
2018-04-23T16:11:30.861Z,15.40
2018-04-23T16:13:58.631Z,15.50
2018-04-23T16:16:26.885Z,15.40
2018-04-23T16:18:54.366Z,15.40
2018-04-23T16:21:22.502Z,15.40
2018-04-23T16:23:49.977Z,15.40
2018-04-23T16:26:17.517Z,15.20
2018-04-23T16:28:45.086Z,15.20
2018-04-23T16:31:12.559Z,15.20
2018-04-23T16:33:40.814Z,15.30
2018-04-23T16:36:09.342Z,15.20
2018-04-23T16:38:37.602Z,15.10
2018-04-23T16:41:05.856Z,15.30
2018-04-23T16:43:34.047Z,15.30
2018-04-23T16:46:01.938Z,15.10
2018-04-23T16:48:29.428Z,15.10
2018-04-23T16:50:57.249Z,15.00
2018-04-23T16:53:24.844Z,15.00
2018-04-23T16:55:52.310Z,15.00
2018-04-23T16:58:20.099Z,14.90
2018-04-23T17:00:47.578Z,14.70
2018-04-23T17:03:15.898Z,14.80
2018-04-23T17:05:43.385Z,14.70
2018-04-23T17:08:10.880Z,14.70
2018-04-23T17:10:38.368Z,12.70
2018-04-23T17:13:05.883Z,14.70
2018-04-23T17:15:34.148Z,14.60
2018-04-23T17:18:02.414Z,14.50
2018-04-23T17:20:29.939Z,14.50
2018-04-23T17:22:57.448Z,14.50
2018-04-23T17:25:25.720Z,14.30
2018-04-23T17:27:53.227Z,14.30
2018-04-23T17:30:20.718Z,14.20
2018-04-23T17:32:48.231Z,14.20
2018-04-23T17:35:15.994Z,14.20
2018-04-23T17:37:43.492Z,14.20
2018-04-23T17:40:10.989Z,14.10
2018-04-23T17:42:38.855Z,14.00
2018-04-23T17:45:07.119Z,14.00
2018-04-23T17:47:34.619Z,14.00
2018-04-23T17:50:02.087Z,14.00
2018-04-23T17:52:29.549Z,13.90
2018-04-23T17:54:57.298Z,13.90
2018-04-23T17:57:25.123Z,13.80
2018-04-23T17:59:53.363Z,13.80
2018-04-23T18:02:21.542Z,13.80
2018-04-23T18:04:49.472Z,13.60
2018-04-23T18:07:16.943Z,13.50
2018-04-23T18:09:44.426Z,13.50
2018-04-23T18:12:12.282Z,13.40
2018-04-23T18:14:42.178Z,13.30
2018-04-23T18:17:09.655Z,13.20
2018-04-23T18:19:37.552Z,13.10
2018-04-23T18:22:06.131Z,13.10
2018-04-23T18:24:34.371Z,13.20
2018-04-23T18:27:02.180Z,13.10
2018-04-23T18:29:30.407Z,13.00
2018-04-23T18:31:57.905Z,13.00
2018-04-23T18:34:25.686Z,12.90
2018-04-23T18:36:53.225Z,12.90
2018-04-23T18:39:21.750Z,12.90
2018-04-23T18:41:49.619Z,12.90
2018-04-23T18:44:17.112Z,12.90
2018-04-23T18:46:44.614Z,12.80
2018-04-23T18:49:12.451Z,12.80
2018-04-23T18:51:39.925Z,12.70
2018-04-23T18:54:08.166Z,12.60
2018-04-23T18:56:35.934Z,12.60
2018-04-23T18:59:03.427Z,12.50
2018-04-23T19:01:30.924Z,12.40
2018-04-23T19:03:58.409Z,12.40
2018-04-23T19:06:26.654Z,12.40
2018-04-23T19:08:54.201Z,12.40
2018-04-23T19:11:21.950Z,12.30
2018-04-23T19:13:49.431Z,12.30
2018-04-23T19:16:16.909Z,12.30
2018-04-23T19:18:44.407Z,12.30
2018-04-23T19:21:12.630Z,12.30
2018-04-23T19:23:40.124Z,12.30
2018-04-23T19:26:07.594Z,12.30
2018-04-23T19:28:35.862Z,12.20
2018-04-23T19:31:04.117Z,12.20
2018-04-23T19:33:31.601Z,12.20
2018-04-23T19:35:59.863Z,12.10
2018-04-23T19:38:27.329Z,12.10
2018-04-23T19:40:55.576Z,12.10
2018-04-23T19:43:23.054Z,12.10
2018-04-23T19:45:51.286Z,12.00
2018-04-23T19:48:19.197Z,12.00
2018-04-23T19:50:47.437Z,12.00
2018-04-23T19:53:14.922Z,12.00
2018-04-23T19:55:42.818Z,12.00
2018-04-23T19:58:10.307Z,12.00
2018-04-23T20:00:37.807Z,12.00
2018-04-23T20:03:05.677Z,11.90
2018-04-23T20:05:33.950Z,11.80
2018-04-23T20:08:02.220Z,11.80
2018-04-23T20:10:30.095Z,11.80
2018-04-23T20:12:58.330Z,11.80
2018-04-23T20:15:25.794Z,11.80
2018-04-23T20:17:53.305Z,11.80
2018-04-23T20:20:20.795Z,11.70
2018-04-23T20:22:48.246Z,11.70
2018-04-23T20:25:15.988Z,11.70
2018-04-23T20:27:43.511Z,11.70
2018-04-23T20:30:10.982Z,11.60
2018-04-23T20:32:39.222Z,11.60
2018-04-23T20:35:06.686Z,11.60
2018-04-23T20:37:34.162Z,11.60
2018-04-23T20:40:02.407Z,11.50
2018-04-23T20:42:29.888Z,11.50
2018-04-23T20:44:57.370Z,11.50
2018-04-23T20:47:25.976Z,11.40
2018-04-23T20:49:53.449Z,11.40
2018-04-23T20:52:20.924Z,11.40
2018-04-23T20:54:48.726Z,11.40
2018-04-23T20:57:17.667Z,11.30
2018-04-23T20:59:45.140Z,11.30
2018-04-23T21:02:12.647Z,11.30
2018-04-23T21:04:40.191Z,11.30
2018-04-23T21:07:07.721Z,11.20
2018-04-23T21:09:35.561Z,11.20
2018-04-23T21:12:03.063Z,11.20
2018-04-23T21:14:31.301Z,11.30
2018-04-23T21:16:59.225Z,11.20
2018-04-23T21:19:26.670Z,11.20
2018-04-23T21:21:54.940Z,11.30
2018-04-23T21:24:22.710Z,11.20
2018-04-23T21:26:50.938Z,11.20
2018-04-23T21:29:18.434Z,11.20
2018-04-23T21:31:45.938Z,11.20
2018-04-23T21:34:13.406Z,11.30
2018-04-23T21:36:40.885Z,11.30
2018-04-23T21:39:08.709Z,11.30
2018-04-23T21:41:36.180Z,11.30
2018-04-23T21:44:03.660Z,11.30
2018-04-23T21:46:31.443Z,11.30
2018-04-23T21:48:59.687Z,11.30
2018-04-23T21:51:27.159Z,11.30
2018-04-23T21:53:54.645Z,11.30
2018-04-23T21:56:22.917Z,11.30
2018-04-23T21:58:51.239Z,11.30
2018-04-23T22:01:18.740Z,11.30
2018-04-23T22:03:46.207Z,11.30
2018-04-23T22:06:15.150Z,11.10
2018-04-23T22:08:42.953Z,11.10
2018-04-23T22:11:10.970Z,11.20
2018-04-23T22:13:38.683Z,11.10
2018-04-23T22:16:06.938Z,11.10
2018-04-23T22:18:34.422Z,11.10
2018-04-23T22:21:02.654Z,11.10
2018-04-23T22:23:30.141Z,11.10
2018-04-23T22:25:57.602Z,11.10
2018-04-23T22:28:25.066Z,11.10
2018-04-23T22:44:02.727Z,11.00
2018-04-23T22:46:30.202Z,11.00
2018-04-23T22:48:57.694Z,10.90
2018-04-23T22:51:25.185Z,10.90
2018-04-23T22:53:52.820Z,10.90
2018-04-23T22:56:20.382Z,10.90
2018-04-23T22:58:47.971Z,10.80
2018-04-23T23:01:15.434Z,10.80
2018-04-23T23:03:43.034Z,10.80
2018-04-23T23:06:10.877Z,10.80
2018-04-23T23:08:39.118Z,10.70
2018-04-23T23:11:06.763Z,10.70
2018-04-23T23:13:34.622Z,10.70
2018-04-23T23:16:02.184Z,10.70
2018-04-23T23:18:29.666Z,10.60
2018-04-23T23:20:57.517Z,10.60
2018-04-23T23:23:25.004Z,10.70
2018-04-23T23:25:53.309Z,10.60
2018-04-23T23:28:21.880Z,10.60
2018-04-23T23:30:50.124Z,10.60
2018-04-23T23:33:17.596Z,10.60
2018-04-23T23:35:45.374Z,10.50
2018-04-23T23:38:13.646Z,10.50
2018-04-23T23:40:41.115Z,10.60
2018-04-23T23:43:08.624Z,10.50
2018-04-23T23:45:36.094Z,10.50
2018-04-23T23:48:04.322Z,10.50
2018-04-23T23:50:32.069Z,10.50
2018-04-23T23:53:00.324Z,10.50
2018-04-23T23:55:27.834Z,10.50
2018-04-23T23:57:55.584Z,10.50
